Time;durP1;ratioP1;P1;durP2;ratioP2;P2;SDS_P1;SDS_P2;PMS_P1;PMS_P2;Temp;Humidity;BMP_temperature;BMP_pressure;BME280_temperature;BME280_humidity;BME280_pressure;Samples;Min_cycle;Max_cycle;Signal;HPM_P1;HPM_P2
2021/04/14 00:00:22;;;;;;;0.23;0.20;;;;;;;9.32;85.54;97391.98;1716582;83;21182;-64
2021/04/14 00:02:52;;;;;;;1.02;0.35;;;;;;;9.34;85.44;97391.34;1716472;83;21189;-64
2021/04/14 00:05:26;;;;;;;0.40;0.37;;;;;;;9.40;84.59;97391.23;1716446;83;21207;-64
2021/04/14 00:07:54;;;;;;;1.12;0.60;;;;;;;9.45;83.73;97394.21;1715866;83;21149;-65
2021/04/14 00:10:28;;;;;;;0.88;0.50;;;;;;;9.51;83.24;97387.94;1716543;83;21205;-64
2021/04/14 00:12:57;;;;;;;0.65;0.50;;;;;;;9.54;83.65;97395.41;1716444;83;21344;-65
2021/04/14 00:15:33;;;;;;;1.07;0.50;;;;;;;9.58;83.19;97386.84;1716475;83;21742;-64
2021/04/14 00:18:01;;;;;;;1.67;0.50;;;;;;;9.66;82.93;97383.02;1716572;83;21178;-64
2021/04/14 00:20:30;;;;;;;1.00;0.70;;;;;;;9.72;82.80;97382.44;1716359;83;21189;-64
2021/04/14 00:22:58;;;;;;;0.72;0.47;;;;;;;9.78;82.18;97378.41;1716387;83;21190;-64
2021/04/14 00:25:30;;;;;;;1.20;0.60;;;;;;;9.83;81.95;97378.77;1716393;83;21331;-64
2021/04/14 00:27:59;;;;;;;1.22;0.82;;;;;;;9.85;81.71;97372.45;1711030;83;21241;-65
2021/04/14 00:30:28;;;;;;;0.78;0.53;;;;;;;9.79;82.66;97378.74;1710224;84;21183;-65
2021/04/14 00:32:57;;;;;;;0.60;0.50;;;;;;;9.76;83.34;97381.64;1710106;84;21647;-65
2021/04/14 00:35:26;;;;;;;0.50;0.23;;;;;;;9.79;82.58;97380.86;1710033;84;21185;-65
2021/04/14 00:37:56;;;;;;;0.68;0.35;;;;;;;9.77;82.71;97382.77;1710268;84;21230;-65
2021/04/14 00:40:32;;;;;;;0.30;0.30;;;;;;;9.80;82.31;97384.27;1710077;84;21190;-65
2021/04/14 00:43:00;;;;;;;1.00;0.35;;;;;;;9.80;81.67;97382.49;1710003;84;21583;-64
2021/04/14 00:45:29;;;;;;;0.45;0.40;;;;;;;9.79;81.22;97379.56;1710071;84;21619;-65
2021/04/14 00:47:57;;;;;;;0.50;0.40;;;;;;;9.73;81.41;97379.33;1710072;84;21602;-64
2021/04/14 00:50:27;;;;;;;0.40;0.30;;;;;;;9.75;80.88;97376.94;1710112;84;21275;-65
2021/04/14 00:52:55;;;;;;;0.42;0.37;;;;;;;9.72;81.12;97373.84;1710123;84;21186;-64
2021/04/14 00:55:27;;;;;;;0.47;0.40;;;;;;;9.63;80.91;97371.66;1710200;84;21151;-64
2021/04/14 00:57:55;;;;;;;0.40;0.40;;;;;;;9.59;81.24;97367.74;1710049;84;21207;-65
2021/04/14 01:00:44;;;;;;;0.20;0.20;;;;;;;9.47;81.57;97378.02;1709992;84;21167;-65
2021/04/14 01:03:25;;;;;;;0.50;0.40;;;;;;;9.48;81.15;97377.88;1709318;83;21632;-67
2021/04/14 01:05:55;;;;;;;0.55;0.40;;;;;;;9.38;82.31;97369.83;1710112;84;21158;-64
2021/04/14 01:08:24;;;;;;;1.45;0.60;;;;;;;9.29;81.64;97371.56;1710141;84;21635;-65
2021/04/14 01:10:53;;;;;;;0.30;0.30;;;;;;;9.28;81.74;97364.74;1710049;84;21604;-64
2021/04/14 01:13:21;;;;;;;0.50;0.40;;;;;;;9.25;82.20;97364.23;1709970;84;21147;-64
2021/04/14 01:15:51;;;;;;;2.25;0.70;;;;;;;9.22;82.38;97369.20;1710033;84;21155;-64
2021/04/14 01:18:27;;;;;;;1.20;0.75;;;;;;;9.16;82.81;97365.93;1710199;84;21606;-64
2021/04/14 01:20:57;;;;;;;1.02;0.60;;;;;;;9.18;82.95;97366.61;1710156;84;21187;-65
2021/04/14 01:23:28;;;;;;;1.30;0.60;;;;;;;9.22;82.75;97367.12;1710395;84;21179;-64
2021/04/14 01:25:57;;;;;;;0.50;0.50;;;;;;;9.23;82.52;97358.37;1710148;84;21230;-65
2021/04/14 01:28:39;;;;;;;0.50;0.47;;;;;;;9.17;82.49;97358.50;1710154;83;21176;-64
2021/04/14 01:31:12;;;;;;;1.75;0.98;;;;;;;9.19;82.51;97355.74;1710167;84;21236;-64
2021/04/14 01:33:40;;;;;;;1.40;1.10;;;;;;;9.17;81.79;97356.39;1710207;84;21636;-65
2021/04/14 01:36:29;;;;;;;0.70;0.50;;;;;;;8.99;84.48;97357.19;1710210;84;21612;-64
2021/04/14 01:38:57;;;;;;;0.95;0.75;;;;;;;9.06;82.28;97347.86;1680253;85;21365;-64
2021/04/14 01:41:26;;;;;;;1.52;0.80;;;;;;;9.01;82.06;97347.98;1680340;85;21321;-63
2021/04/14 01:43:54;;;;;;;0.72;0.53;;;;;;;9.02;82.27;97345.73;1680314;85;21251;-63
2021/04/14 01:46:22;;;;;;;0.70;0.53;;;;;;;8.99;82.53;97344.71;1680114;85;21176;-64
2021/04/14 01:48:50;;;;;;;0.82;0.60;;;;;;;8.96;83.00;97348.90;1680378;85;21180;-63
2021/04/14 01:51:19;;;;;;;0.88;0.40;;;;;;;8.92;82.85;97348.86;1680175;85;21187;-64
2021/04/14 01:53:47;;;;;;;0.88;0.50;;;;;;;8.90;82.06;97341.73;1680339;85;21204;-63
2021/04/14 01:56:15;;;;;;;0.78;0.47;;;;;;;8.92;80.74;97347.09;1680354;85;21257;-64
2021/04/14 01:58:44;;;;;;;0.80;0.55;;;;;;;8.92;80.52;97345.79;1680273;85;21193;-64
2021/04/14 02:01:12;;;;;;;0.60;0.50;;;;;;;8.90;81.48;97341.73;1680451;85;21224;-64
2021/04/14 02:03:41;;;;;;;0.55;0.53;;;;;;;8.73;83.70;97346.40;1680251;85;21326;-64
2021/04/14 02:06:13;;;;;;;0.68;0.50;;;;;;;8.73;82.99;97346.40;1657431;86;21702;-63
2021/04/14 02:08:43;;;;;;;0.85;0.50;;;;;;;8.72;82.17;97340.41;1679870;85;21253;-63
2021/04/14 02:11:14;;;;;;;0.75;0.55;;;;;;;8.69;83.29;97342.00;1680055;85;21183;-63
2021/04/14 02:13:44;;;;;;;0.53;0.50;;;;;;;8.69;82.79;97343.29;1680078;85;21326;-63
2021/04/14 02:16:38;;;;;;;1.75;0.53;;;;;;;8.67;82.95;97345.70;1680095;85;21626;-63
2021/04/14 02:19:07;;;;;;;0.70;0.57;;;;;;;8.56;84.55;97337.64;1642302;87;21254;-63
2021/04/14 02:21:36;;;;;;;0.30;0.30;;;;;;;8.51;84.87;97338.09;1626588;88;21600;-63
2021/04/14 02:24:06;;;;;;;0.35;0.30;;;;;;;8.50;83.13;97339.52;1642130;87;21179;-64
2021/04/14 02:26:34;;;;;;;2.98;0.47;;;;;;;8.51;82.49;97336.80;1626592;87;21175;-63
2021/04/14 02:29:02;;;;;;;1.25;0.88;;;;;;;8.46;83.14;97331.72;1626398;88;21199;-63
2021/04/14 02:31:32;;;;;;;0.80;0.50;;;;;;;8.29;85.02;97328.12;1626499;88;21159;-66
2021/04/14 02:34:04;;;;;;;1.12;0.45;;;;;;;8.21;85.83;97329.78;1626376;87;21919;-63
2021/04/14 02:36:33;;;;;;;0.70;0.65;;;;;;;8.22;85.61;97335.27;1626911;88;21208;-63
2021/04/14 02:39:01;;;;;;;0.93;0.62;;;;;;;8.04;86.87;97339.92;1626352;88;21220;-63
2021/04/14 02:41:29;;;;;;;0.93;0.62;;;;;;;8.08;85.51;97335.28;1626472;87;21175;-64
2021/04/14 02:43:57;;;;;;;0.90;0.50;;;;;;;8.09;85.25;97330.45;1626418;87;21759;-64
2021/04/14 02:46:25;;;;;;;0.50;0.50;;;;;;;8.09;85.32;97331.23;1642144;87;21191;-65
2021/04/14 02:48:54;;;;;;;0.60;0.40;;;;;;;8.11;84.49;97329.81;1626508;88;21664;-64
2021/04/14 02:51:22;;;;;;;0.50;0.42;;;;;;;8.14;83.55;97330.81;1642191;87;21640;-63
2021/04/14 02:53:51;;;;;;;0.68;0.35;;;;;;;8.14;83.06;97324.34;1626473;88;21202;-65
2021/04/14 02:56:19;;;;;;;0.60;0.40;;;;;;;8.10;83.98;97321.71;1626690;87;21191;-66
2021/04/14 02:58:47;;;;;;;1.37;1.17;;;;;;;8.13;83.71;97321.92;1626826;88;21167;-65
2021/04/14 03:01:17;;;;;;;0.50;0.50;;;;;;;8.03;84.99;97325.83;1642617;87;21191;-63
2021/04/14 03:04:01;;;;;;;0.70;0.40;;;;;;;7.99;84.88;97325.30;1626667;88;21629;-63
2021/04/14 03:06:29;;;;;;;0.23;0.20;;;;;;;7.98;84.90;97324.95;1626528;88;21199;-63
2021/04/14 03:08:57;;;;;;;0.23;0.23;;;;;;;8.03;84.02;97323.24;1642270;87;21186;-67
2021/04/14 03:11:25;;;;;;;0.72;0.70;;;;;;;8.01;86.22;97320.00;1626402;88;21167;-65
2021/04/14 03:13:54;;;;;;;0.95;0.42;;;;;;;7.98;86.04;97322.38;1642096;87;21215;-65
2021/04/14 03:16:24;;;;;;;0.65;0.55;;;;;;;7.95;87.50;97326.54;1626579;88;21211;-64
2021/04/14 03:18:53;;;;;;;1.05;0.35;;;;;;;7.84;88.15;97322.84;1625073;88;21199;-64
2021/04/14 03:21:22;;;;;;;0.70;0.50;;;;;;;7.98;86.64;97323.66;1624671;88;21191;-65
2021/04/14 03:23:50;;;;;;;0.42;0.33;;;;;;;8.00;85.69;97319.18;1624711;87;21191;-65
2021/04/14 03:26:18;;;;;;;0.82;0.42;;;;;;;8.04;85.88;97316.64;1624877;88;21199;-65
2021/04/14 03:28:46;;;;;;;0.95;0.45;;;;;;;8.10;85.67;97314.77;1624713;88;21239;-65
2021/04/14 03:31:15;;;;;;;0.42;0.40;;;;;;;8.11;85.75;97320.28;1624690;88;21151;-64
2021/04/14 03:33:43;;;;;;;0.75;0.62;;;;;;;8.13;85.71;97318.05;1624829;88;21246;-65
2021/04/14 03:36:11;;;;;;;0.80;0.70;;;;;;;8.10;86.07;97321.71;1624657;88;21195;-64
2021/04/14 03:38:39;;;;;;;0.95;0.40;;;;;;;8.09;85.71;97319.59;1624958;88;21275;-66
2021/04/14 03:41:08;;;;;;;0.85;0.50;;;;;;;8.10;85.81;97317.83;1625053;88;21175;-64
2021/04/14 03:43:36;;;;;;;0.53;0.40;;;;;;;8.17;85.55;97321.98;1624965;88;21206;-64
2021/04/14 03:46:04;;;;;;;0.40;0.30;;;;;;;8.20;85.06;97320.39;1624998;88;21194;-64
2021/04/14 03:48:32;;;;;;;0.95;0.37;;;;;;;8.20;84.02;97322.98;1624658;88;21179;-64
2021/04/14 03:51:01;;;;;;;0.25;0.25;;;;;;;8.17;82.86;97319.39;1624618;88;21227;-64
2021/04/14 03:53:34;;;;;;;1.67;0.80;;;;;;;8.27;83.18;97321.44;1624715;88;21620;-64
2021/04/14 03:56:12;;;;;;;0.85;0.40;;;;;;;8.32;83.33;97321.39;1624692;88;21195;-64
2021/04/14 03:58:50;;;;;;;1.72;0.62;;;;;;;8.35;83.47;97321.09;1624811;88;21211;-64
2021/04/14 04:01:29;;;;;;;0.50;0.45;;;;;;;8.36;83.84;97320.14;1624784;88;21208;-64
2021/04/14 04:04:00;;;;;;;0.33;0.20;;;;;;;8.43;83.48;97322.95;1624913;88;21261;-64
2021/04/14 04:06:28;;;;;;;1.70;0.35;;;;;;;8.49;82.88;97324.47;1624750;88;21568;-64
2021/04/14 04:08:56;;;;;;;0.50;0.30;;;;;;;8.43;82.78;97322.95;1624754;88;21223;-65
2021/04/14 04:11:25;;;;;;;0.62;0.40;;;;;;;8.36;81.31;97323.20;1625009;88;21598;-64
2021/04/14 04:13:53;;;;;;;0.85;0.20;;;;;;;8.25;81.81;97323.37;1625006;88;21299;-64
2021/04/14 04:16:23;;;;;;;0.20;0.20;;;;;;;8.20;81.80;97330.73;1604853;88;21215;-64
2021/04/14 04:18:52;;;;;;;2.37;0.13;;;;;;;8.22;80.61;97328.33;1624630;88;21251;-64
2021/04/14 04:21:23;;;;;;;0.10;0.10;;;;;;;8.24;80.26;97328.20;1624729;87;21636;-64
2021/04/14 04:23:52;;;;;;;0.10;0.10;;;;;;;8.22;79.51;97332.69;1624716;88;21218;-64
2021/04/14 04:26:20;;;;;;;0.15;0.15;;;;;;;8.20;79.01;97327.67;1624812;88;21195;-63
2021/04/14 04:28:48;;;;;;;0.40;0.30;;;;;;;8.20;78.84;97338.49;1624924;88;21235;-63
2021/04/14 04:31:16;;;;;;;0.40;0.30;;;;;;;8.19;79.06;97338.15;1624724;88;21663;-64
2021/04/14 04:33:44;;;;;;;0.37;0.30;;;;;;;8.04;79.79;97343.80;1623916;88;21250;-64
2021/04/14 04:36:12;;;;;;;0.10;0.10;;;;;;;7.96;80.80;97340.28;1623309;88;21175;-64
2021/04/14 04:38:40;;;;;;;0.40;0.20;;;;;;;7.98;79.57;97343.05;1623343;88;21195;-64
2021/04/14 04:43:49;;;;;;;0.20;0.20;;;;;;;7.94;78.88;97348.64;1659949;86;21218;-65
2021/04/14 04:46:17;;;;;;;1.10;0.50;;;;;;;7.81;79.63;97342.52;1659757;85;21150;-64
2021/04/14 04:48:45;;;;;;;0.17;0.13;;;;;;;7.77;80.01;97346.33;1659837;86;21166;-65
2021/04/14 04:51:13;;;;;;;0.45;0.33;;;;;;;7.63;79.78;97351.45;1659794;86;21174;-65
2021/04/14 04:53:41;;;;;;;0.50;0.30;;;;;;;7.61;79.91;97354.66;1660021;86;21721;-66
2021/04/14 04:56:09;;;;;;;0.65;0.20;;;;;;;7.52;79.75;97352.91;1659965;85;21599;-64
2021/04/14 04:58:37;;;;;;;0.53;0.30;;;;;;;7.42;80.95;97360.33;1660122;86;21178;-64
2021/04/14 05:04:01;;;;;;;1.32;0.37;;;;;;;7.39;81.53;97357.53;1667705;84;21243;-64
2021/04/14 05:06:29;;;;;;;1.12;0.45;;;;;;;7.38;80.73;97361.09;1653516;86;21751;-63
2021/04/14 05:08:57;;;;;;;0.47;0.20;;;;;;;7.38;80.95;97368.02;1651553;86;21382;-64
2021/04/14 05:11:25;;;;;;;0.90;0.30;;;;;;;7.35;80.86;97361.84;1651404;86;21192;-64
2021/04/14 05:13:53;;;;;;;0.78;0.33;;;;;;;7.34;81.18;97365.37;1651242;85;21232;-64
2021/04/14 05:16:22;;;;;;;0.68;0.47;;;;;;;7.15;79.93;97367.48;1651189;85;21736;-64
2021/04/14 05:18:51;;;;;;;4.30;1.82;;;;;;;7.15;80.62;97367.02;1651269;87;21189;-65
2021/04/14 05:21:20;;;;;;;2.70;1.37;;;;;;;7.16;80.86;97369.91;1651419;85;21177;-65
2021/04/14 05:23:59;;;;;;;2.67;1.60;;;;;;;7.16;80.46;97366.51;1607071;89;21144;-65
2021/04/14 05:26:28;;;;;;;28.75;12.90;;;;;;;7.06;82.29;97368.28;1603509;88;21190;-65
2021/04/14 05:28:56;;;;;;;7.90;3.75;;;;;;;7.13;81.11;97371.48;1634488;88;21179;-63
2021/04/14 05:31:31;;;;;;;1.40;1.00;;;;;;;7.18;80.24;97373.66;1607336;89;21192;-66
2021/04/14 05:34:00;;;;;;;0.95;0.45;;;;;;;7.14;80.84;97369.72;1603259;88;21186;-65
2021/04/14 05:36:28;;;;;;;0.72;0.40;;;;;;;7.08;81.00;97376.23;1603658;89;21198;-64
2021/04/14 05:38:56;;;;;;;0.53;0.47;;;;;;;7.07;80.57;97375.91;1622732;88;21631;-62
2021/04/14 05:41:25;;;;;;;0.20;0.20;;;;;;;7.11;81.40;97377.27;1607431;88;21147;-65
2021/04/14 05:43:54;;;;;;;0.20;0.20;;;;;;;7.22;80.36;97379.37;1603376;89;21163;-64
2021/04/14 05:46:22;;;;;;;0.70;0.30;;;;;;;7.24;80.15;97380.06;1612717;88;21621;-64
2021/04/14 05:48:51;;;;;;;0.15;0.10;;;;;;;7.29;78.94;97377.39;1606791;88;21232;-62
2021/04/14 05:51:27;;;;;;;1.27;0.30;;;;;;;7.29;78.52;97381.27;1643668;85;21196;-61
2021/04/14 05:53:55;;;;;;;0.68;0.40;;;;;;;7.29;77.97;97377.39;1618274;87;21222;-64
2021/04/14 05:56:26;;;;;;;0.20;0.20;;;;;;;7.18;77.79;97383.17;1624138;87;21602;-63
2021/04/14 05:58:55;;;;;;;0.30;0.25;;;;;;;7.11;77.60;97383.72;1624212;87;21174;-63
2021/04/14 06:01:27;;;;;;;0.10;0.10;;;;;;;7.11;77.62;97386.31;1620429;87;21625;-60
2021/04/14 06:03:55;;;;;;;0.72;0.35;;;;;;;7.12;77.24;97378.06;1616249;87;21630;-63
2021/04/14 06:06:25;;;;;;;0.50;0.40;;;;;;;7.08;77.38;97381.89;1614679;86;21163;-62
2021/04/14 06:08:53;;;;;;;0.42;0.35;;;;;;;6.95;77.78;97380.85;1613403;89;21647;-63
2021/04/14 06:11:21;;;;;;;0.20;0.20;;;;;;;6.93;76.86;97386.61;1613502;89;21187;-64
2021/04/14 06:13:51;;;;;;;1.02;0.50;;;;;;;6.86;76.92;97384.23;1613425;89;21234;-64
2021/04/14 06:16:20;;;;;;;0.15;0.15;;;;;;;6.77;77.96;97385.02;1613594;88;21619;-63
2021/04/14 06:18:48;;;;;;;1.50;0.42;;;;;;;6.78;76.98;97387.95;1613371;88;21254;-63
2021/04/14 06:21:18;;;;;;;0.30;0.20;;;;;;;6.71;77.59;97385.56;1613371;87;21634;-64
2021/04/14 06:23:47;;;;;;;1.20;0.30;;;;;;;6.64;77.79;97392.20;1616128;88;21182;-62
2021/04/14 06:26:37;;;;;;;1.37;0.42;;;;;;;6.49;78.61;97390.94;1616614;89;21210;-63
2021/04/14 06:28:58;;;;;;;0.30;0.30;;;;;;;6.59;78.38;97385.32;1615854;87;21412;-62
2021/04/14 06:31:26;;;;;;;1.32;0.57;;;;;;;6.56;77.98;97393.33;1616794;89;21568;-63
2021/04/14 06:33:55;;;;;;;2.42;0.40;;;;;;;6.57;77.87;97387.23;1617001;87;21193;-63
2021/04/14 06:36:23;;;;;;;3.30;0.42;;;;;;;6.50;78.52;97392.08;1616745;89;21261;-63
2021/04/14 06:38:53;;;;;;;0.55;0.50;;;;;;;6.49;78.25;97393.05;1616610;89;21198;-63
2021/04/14 06:44:49;;;;;;;0.20;0.20;;;;;;;6.37;79.25;97402.30;1616798;88;21224;-64
2021/04/14 06:47:54;;;;;;;18.27;9.70;;;;;;;6.41;76.45;97399.80;1616756;89;21324;-64
2021/04/14 06:50:50;;;;;;;12.55;6.80;;;;;;;6.31;77.53;97407.48;1591621;90;21627;-65
2021/04/14 06:53:56;;;;;;;2.05;1.50;;;;;;;6.36;77.52;97406.64;1591021;89;21184;-63
2021/04/14 06:56:25;;;;;;;0.88;0.55;;;;;;;6.28;77.56;97408.22;1591424;90;21216;-65
2021/04/14 06:59:03;;;;;;;0.40;0.30;;;;;;;6.32;76.32;97412.17;1591497;89;21200;-64
2021/04/14 07:01:39;;;;;;;0.10;0.10;;;;;;;6.19;76.15;97389.18;1591394;90;21230;-64
2021/04/14 07:04:25;;;;;;;;;;;;;;;6.33;75.46;97413.81;1593742;90;21609;-65
2021/04/14 07:06:54;;;;;;;0.20;0.20;;;;;;;6.30;75.48;97416.66;1619846;87;20155;-64
2021/04/14 07:09:48;;;;;;;0.37;0.23;;;;;;;6.25;75.63;97420.91;1619775;88;22093;-65
2021/04/14 07:12:21;;;;;;;1.37;0.25;;;;;;;6.18;75.69;97424.48;1658479;86;21199;-64
2021/04/14 07:14:53;;;;;;;0.15;0.15;;;;;;;6.20;75.16;97426.45;1658534;85;21321;-64
2021/04/14 07:18:04;;;;;;;0.10;0.10;;;;;;;6.12;74.86;97426.27;1661343;85;21248;-67
2021/04/14 07:21:00;;;;;;;0.10;0.10;;;;;;;6.13;74.93;97435.64;1634296;86;21596;-65
2021/04/14 07:23:40;;;;;;;0.78;0.65;;;;;;;6.08;75.13;97431.80;1653220;86;21221;-64
2021/04/14 07:26:48;;;;;;;0.20;0.20;;;;;;;5.93;76.85;97441.63;1657378;85;21226;-65
2021/04/14 07:29:28;;;;;;;0.45;0.30;;;;;;;5.93;76.68;97434.37;1666105;84;21237;-65
2021/04/14 07:35:33;;;;;;;0.60;0.40;;;;;;;5.77;76.73;97450.70;1751177;82;21171;-65
2021/04/14 07:38:43;;;;;;;0.23;0.20;;;;;;;5.71;76.46;97448.99;1710352;83;21200;-66
2021/04/14 07:41:58;;;;;;;0.80;0.30;;;;;;;5.73;75.71;97448.84;1712596;82;21258;-64
2021/04/14 07:44:39;;;;;;;0.37;0.37;;;;;;;5.43;76.79;97453.91;1652109;86;21219;-63
2021/04/14 07:47:11;;;;;;;0.20;0.20;;;;;;;5.46;76.91;97454.94;1681427;84;21175;-64
2021/04/14 07:49:40;;;;;;;0.47;0.30;;;;;;;5.56;77.29;97453.28;1680956;84;21729;-63
2021/04/14 07:52:12;;;;;;;0.20;0.20;;;;;;;5.62;76.84;97456.64;1679881;85;21186;-64
2021/04/14 07:54:44;;;;;;;2.75;0.25;;;;;;;5.68;76.80;97458.73;1679855;84;21535;-63
2021/04/14 07:57:13;;;;;;;0.25;0.20;;;;;;;5.72;77.11;97453.18;1679656;84;21142;-64
2021/04/14 07:59:43;;;;;;;0.20;0.20;;;;;;;5.60;76.59;97461.11;1679709;84;21234;-64
2021/04/14 08:02:15;;;;;;;0.28;0.28;;;;;;;5.65;75.26;97461.06;1679785;84;21186;-64
2021/04/14 08:04:46;;;;;;;0.30;0.28;;;;;;;5.75;75.78;97459.86;1679921;85;21179;-64
2021/04/14 08:07:24;;;;;;;8.55;4.62;;;;;;;5.83;76.74;97460.52;1679843;84;21599;-64
2021/04/14 08:10:19;;;;;;;15.20;8.13;;;;;;;5.88;76.28;97460.51;1722131;83;21164;-64
2021/04/14 08:13:03;;;;;;;1.87;1.22;;;;;;;6.04;75.57;97454.44;1693152;84;21717;-65
2021/04/14 08:15:41;;;;;;;0.37;0.37;;;;;;;6.18;74.93;97454.60;1692993;83;21200;-66
2021/04/14 08:18:24;;;;;;;0.13;0.13;;;;;;;6.29;74.30;97451.94;1693230;84;21260;-65
2021/04/14 08:21:13;;;;;;;0.10;0.10;;;;;;;6.40;74.41;97452.32;1693236;84;21599;-65
2021/04/14 08:24:01;;;;;;;0.17;0.08;;;;;;;6.42;73.44;97449.16;1650001;85;21208;-65
2021/04/14 08:26:30;;;;;;;0.55;0.40;;;;;;;6.49;72.74;97459.30;1664342;85;21181;-64
2021/04/14 08:29:13;;;;;;;0.25;0.10;;;;;;;6.31;73.09;97457.77;1664888;85;21221;-65
2021/04/14 08:31:45;;;;;;;2.02;0.20;;;;;;;6.12;73.16;97459.78;1665205;86;21737;-64
2021/04/14 08:34:57;;;;;;;0.20;0.20;;;;;;;6.18;73.34;97460.58;1687795;85;21128;-64
2021/04/14 08:37:27;;;;;;;0.20;0.20;;;;;;;6.23;73.23;97456.77;1687073;85;21196;-67
2021/04/14 08:43:37;;;;;;;0.10;0.10;;;;;;;6.08;72.84;97454.53;1719978;83;21159;-68
2021/04/14 08:46:37;;;;;;;0.30;0.10;;;;;;;6.08;72.84;97454.53;1720314;82;21505;-69
2021/04/14 08:49:30;;;;;;;0.20;0.20;;;;;;;6.00;72.91;97453.53;1643629;87;21661;-68
2021/04/14 08:51:58;;;;;;;0.57;0.30;;;;;;;5.96;73.48;97459.41;1655015;86;21588;-67
2021/04/14 08:54:34;;;;;;;0.20;0.20;;;;;;;5.97;73.37;97457.19;1645072;86;21220;-67
2021/04/14 08:57:06;;;;;;;0.10;0.10;;;;;;;5.98;73.15;97452.85;1655105;86;21174;-71
2021/04/14 08:59:35;;;;;;;0.40;0.40;;;;;;;5.97;72.87;97453.31;1651745;87;21251;-67
2021/04/14 09:02:11;;;;;;;0.35;0.20;;;;;;;5.84;74.08;97451.36;1655147;86;21604;-68
2021/04/14 09:05:03;;;;;;;0.10;0.10;;;;;;;5.85;73.45;97457.34;1651495;87;21161;-68
2021/04/14 09:07:36;;;;;;;0.50;0.23;;;;;;;5.73;73.82;97468.99;1654707;86;21192;-68
2021/04/14 09:10:10;;;;;;;0.23;0.20;;;;;;;5.68;73.75;97455.66;1654618;87;21684;-68
2021/04/14 09:12:46;;;;;;;0.20;0.20;;;;;;;5.67;74.04;97459.20;1654768;86;21239;-68
2021/04/14 09:15:15;;;;;;;0.47;0.20;;;;;;;5.65;74.83;97466.22;1654948;87;21631;-68
2021/04/14 09:17:45;;;;;;;0.30;0.20;;;;;;;5.61;73.82;97454.53;1654536;87;21603;-69
2021/04/14 09:20:24;;;;;;;0.15;0.15;;;;;;;5.51;74.88;97452.83;1635607;86;21587;-67
2021/04/14 09:23:12;;;;;;;0.23;0.23;;;;;;;5.60;74.54;97452.09;1654621;87;21605;-67
2021/04/14 09:25:49;;;;;;;0.62;0.20;;;;;;;5.50;75.19;97465.34;1654665;86;21178;-68
2021/04/14 09:28:36;;;;;;;0.37;0.33;;;;;;;5.45;75.09;97457.16;1654557;86;21555;-67
2021/04/14 09:31:28;;;;;;;0.10;0.10;;;;;;;5.44;75.01;97462.81;1654525;86;21232;-68
2021/04/14 09:34:01;;;;;;;1.12;0.20;;;;;;;5.33;75.37;97460.25;1651222;86;21204;-68
2021/04/14 09:36:40;;;;;;;1.27;0.20;;;;;;;5.35;74.85;97458.85;1653279;86;21180;-68
2021/04/14 09:39:32;;;;;;;0.20;0.20;;;;;;;5.38;75.12;97457.31;1654081;86;21199;-68
2021/04/14 09:42:00;;;;;;;;;;;;;;;5.38;74.67;97459.42;1684812;85;21151;-67
2021/04/14 09:44:36;;;;;;;0.30;0.13;;;;;;;5.45;75.60;97459.74;1667051;85;20160;-68
2021/04/14 09:47:32;;;;;;;;;;;;;;;5.53;74.53;97462.52;1685026;84;21632;-68
2021/04/14 09:50:36;;;;;;;0.10;0.10;;;;;;;5.61;73.74;97459.68;1667188;85;20147;-68
2021/04/14 09:53:27;;;;;;;0.10;0.10;;;;;;;5.66;74.14;97462.70;1691642;84;21174;-67
2021/04/14 09:56:19;;;;;;;0.10;0.10;;;;;;;5.73;73.18;97456.11;1706946;83;21170;-67
2021/04/14 09:59:03;;;;;;;0.20;0.20;;;;;;;5.81;73.27;97456.77;1680817;85;21180;-63
2021/04/14 10:01:37;;;;;;;0.25;0.20;;;;;;;5.91;73.36;97464.15;1695168;83;21207;-64
2021/04/14 10:04:23;;;;;;;0.10;0.10;;;;;;;5.97;72.97;97459.77;1681158;83;21175;-65
2021/04/14 10:06:57;;;;;;;0.10;0.10;;;;;;;6.04;72.56;97460.06;1680540;85;21195;-65
2021/04/14 10:09:32;;;;;;;0.10;0.10;;;;;;;6.13;72.55;97460.60;1680620;85;21592;-65
2021/04/14 10:12:17;;;;;;;0.35;0.20;;;;;;;6.23;72.53;97460.17;1707064;83;21186;-65
2021/04/14 10:14:50;;;;;;;0.25;0.20;;;;;;;6.29;72.50;97457.09;1680742;85;21187;-65
2021/04/14 10:17:21;;;;;;;0.20;0.10;;;;;;;6.36;72.25;97458.68;1707035;83;21202;-64
2021/04/14 10:19:55;;;;;;;0.10;0.10;;;;;;;6.43;72.31;97455.45;1707020;83;21190;-65
2021/04/14 10:25:35;;;;;;;0.10;0.10;;;;;;;6.51;72.76;97459.97;1775843;79;21590;-65
2021/04/14 10:28:08;;;;;;;0.10;0.10;;;;;;;6.57;71.67;97462.86;1775958;79;21569;-65
2021/04/14 10:30:41;;;;;;;0.10;0.10;;;;;;;6.65;71.50;97461.71;1775865;80;21209;-65
2021/04/14 10:33:22;;;;;;;0.10;0.10;;;;;;;6.72;71.52;97460.73;1775968;79;21233;-64
2021/04/14 10:35:52;;;;;;;0.23;0.20;;;;;;;6.78;71.01;97460.67;1776049;79;21149;-65
2021/04/14 10:38:30;;;;;;;0.10;0.10;;;;;;;6.83;70.78;97455.47;1775912;79;21224;-65
2021/04/14 10:40:59;;;;;;;0.35;0.30;;;;;;;6.90;70.81;97459.16;1775928;79;21161;-64
2021/04/14 10:43:29;;;;;;;0.20;0.20;;;;;;;6.94;71.23;97457.94;1776901;79;21686;-65
2021/04/14 10:46:08;;;;;;;0.20;0.20;;;;;;;6.99;70.87;97457.08;1777110;79;21146;-64
2021/04/14 10:48:42;;;;;;;0.17;0.15;;;;;;;7.03;70.71;97455.87;1777106;79;21154;-65
2021/04/14 10:51:24;;;;;;;0.20;0.20;;;;;;;7.05;70.00;97460.88;1777063;79;21319;-63
2021/04/14 10:54:00;;;;;;;0.30;0.30;;;;;;;7.06;70.45;97459.47;1777019;79;21543;-64
2021/04/14 10:56:31;;;;;;;0.10;0.10;;;;;;;7.10;69.96;97458.25;1777192;79;21283;-65
2021/04/14 10:59:04;;;;;;;0.30;0.30;;;;;;;7.14;70.09;97462.20;1777154;79;21741;-65
2021/04/14 11:01:38;;;;;;;0.25;0.13;;;;;;;7.16;69.71;97455.59;1776988;79;21335;-65
2021/04/14 11:04:29;;;;;;;0.10;0.10;;;;;;;7.21;69.88;97457.78;1776959;79;21364;-65
2021/04/14 11:07:12;;;;;;;0.17;0.17;;;;;;;7.25;70.20;97463.84;1738661;81;21610;-65
2021/04/14 11:09:43;;;;;;;0.20;0.20;;;;;;;7.29;69.64;97460.04;1713918;81;21174;-65
2021/04/14 11:12:19;;;;;;;0.10;0.10;;;;;;;7.30;69.76;97464.27;1738622;81;21214;-64
2021/04/14 11:14:51;;;;;;;0.33;0.20;;;;;;;7.33;68.96;97461.88;1738909;81;21670;-66
2021/04/14 11:17:26;;;;;;;0.55;0.30;;;;;;;7.30;69.97;97464.27;1738756;81;21603;-65
2021/04/14 11:20:28;;;;;;;0.40;0.25;;;;;;;7.28;69.32;97463.56;1712033;76;21172;-65
2021/04/14 11:22:57;;;;;;;0.13;0.13;;;;;;;7.27;68.97;97459.38;1713305;83;21565;-65
2021/04/14 11:25:51;;;;;;;0.45;0.30;;;;;;;7.24;68.93;97460.12;1767106;81;21326;-64
2021/04/14 11:28:21;;;;;;;0.10;0.10;;;;;;;7.26;68.72;97460.79;1699586;83;21160;-65
2021/04/14 11:30:56;;;;;;;0.30;0.10;;;;;;;7.21;69.22;97469.40;1724167;83;21188;-64
2021/04/14 11:33:59;;;;;;;0.10;0.10;;;;;;;7.22;69.23;97465.88;1687182;84;21219;-65
2021/04/14 11:36:33;;;;;;;0.40;0.20;;;;;;;7.14;69.10;97456.22;1635206;85;21240;-68
2021/04/14 11:39:13;;;;;;;0.90;0.50;;;;;;;7.23;68.92;97470.10;1705337;84;21236;-68
2021/04/14 11:41:52;;;;;;;0.20;0.20;;;;;;;7.23;69.24;97466.23;1665506;86;21156;-64
2021/04/14 11:44:45;;;;;;;0.13;0.13;;;;;;;7.25;68.80;97468.19;1664151;86;21758;-64
2021/04/14 11:50:16;;;;;;;0.10;0.10;;;;;;;7.28;68.67;97466.62;1801278;78;27911;-63
2021/04/14 11:53:20;;;;;;;0.10;0.10;;;;;;;7.32;68.34;97463.64;1787819;80;21587;-63
2021/04/14 11:55:49;;;;;;;0.13;0.10;;;;;;;7.30;68.23;97468.14;1686995;85;21131;-64
2021/04/14 11:58:39;;;;;;;0.10;0.10;;;;;;;7.33;68.47;97462.70;1687055;85;21147;-63
2021/04/14 12:01:22;;;;;;;0.10;0.10;;;;;;;7.37;68.52;97467.94;1658476;85;21151;-67
2021/04/14 12:03:51;;;;;;;0.03;0.03;;;;;;;7.45;68.96;97469.38;1686652;85;21171;-67
2021/04/14 12:06:22;;;;;;;0.08;0.08;;;;;;;7.54;68.13;97468.57;1687213;85;21179;-69
2021/04/14 12:08:52;;;;;;;0.23;0.23;;;;;;;7.59;68.00;97470.25;1686975;84;21171;-68
2021/04/14 12:11:24;;;;;;;0.20;0.20;;;;;;;7.63;68.04;97468.20;1687226;85;21558;-68
2021/04/14 12:13:53;;;;;;;0.03;0.03;;;;;;;7.71;68.20;97468.34;1687166;84;21166;-68
2021/04/14 12:16:21;;;;;;;0.13;0.13;;;;;;;7.77;67.80;97463.11;1686955;85;21183;-68
2021/04/14 12:18:50;;;;;;;0.35;0.10;;;;;;;7.84;67.90;97468.07;1686785;84;21616;-67
2021/04/14 12:21:18;;;;;;;0.10;0.10;;;;;;;7.87;67.55;97464.73;1686800;85;21135;-68
2021/04/14 12:23:49;;;;;;;0.20;0.20;;;;;;;7.87;67.28;97464.73;1686778;84;21187;-68
2021/04/14 12:26:17;;;;;;;0.10;0.10;;;;;;;7.86;67.12;97467.47;1686718;84;21592;-68
2021/04/14 12:28:45;;;;;;;0.17;0.17;;;;;;;7.98;67.88;97457.30;1686725;84;21247;-68
2021/04/14 12:31:14;;;;;;;0.35;0.10;;;;;;;8.02;67.52;97457.36;1686785;85;21191;-68
2021/04/14 12:33:44;;;;;;;1.85;0.50;;;;;;;8.05;66.70;97458.39;1685641;84;21234;-68
2021/04/14 12:36:12;;;;;;;0.10;0.10;;;;;;;8.05;66.62;97465.65;1686800;85;21627;-65